sensor_id;sensor_type;location;lat;lon;timestamp;pressure;altitude;pressure_sealevel;temperature;humidity
39793;BME280;26080;42.264;24.536;2023-03-31T00:00:28;99418.81;;;6.42;77.31
39793;BME280;26080;42.264;24.536;2023-03-31T00:02:53;99417.41;;;6.32;77.93
39793;BME280;26080;42.264;24.536;2023-03-31T00:05:22;99416.88;;;6.19;78.08
39793;BME280;26080;42.264;24.536;2023-03-31T00:07:55;99418.75;;;6.14;78.22
39793;BME280;26080;42.264;24.536;2023-03-31T00:10:26;99411.66;;;6.20;77.05
39793;BME280;26080;42.264;24.536;2023-03-31T00:12:52;99415.56;;;6.04;77.61
39793;BME280;26080;42.264;24.536;2023-03-31T00:15:17;99402.53;;;6.06;77.40
39793;BME280;26080;42.264;24.536;2023-03-31T00:17:42;99402.63;;;6.01;77.12
39793;BME280;26080;42.264;24.536;2023-03-31T00:20:08;99405.97;;;6.06;75.68
39793;BME280;26080;42.264;24.536;2023-03-31T00:22:36;99366.50;;;5.58;75.99
39793;BME280;26080;42.264;24.536;2023-03-31T00:25:04;99400.66;;;5.77;75.94
39793;BME280;26080;42.264;24.536;2023-03-31T00:27:29;99398.31;;;5.68;75.48
39793;BME280;26080;42.264;24.536;2023-03-31T00:29:55;99402.66;;;5.67;75.74
39793;BME280;26080;42.264;24.536;2023-03-31T00:32:20;99403.59;;;5.64;74.99
39793;BME280;26080;42.264;24.536;2023-03-31T00:34:46;99398.38;;;5.64;74.99
39793;BME280;26080;42.264;24.536;2023-03-31T00:37:11;99393.25;;;5.61;75.24
39793;BME280;26080;42.264;24.536;2023-03-31T00:39:40;99394.09;;;5.63;75.36
39793;BME280;26080;42.264;24.536;2023-03-31T00:42:10;99394.41;;;5.51;76.73
39793;BME280;26080;42.264;24.536;2023-03-31T00:48:06;99386.91;;;5.39;78.84
39793;BME280;26080;42.264;24.536;2023-03-31T00:50:44;99386.50;;;5.54;78.37
39793;BME280;26080;42.264;24.536;2023-03-31T00:53:13;99387.72;;;5.41;79.87
39793;BME280;26080;42.264;24.536;2023-03-31T00:55:46;99379.25;;;5.34;80.30
39793;BME280;26080;42.264;24.536;2023-03-31T00:58:14;99384.59;;;5.27;81.14
39793;BME280;26080;42.264;24.536;2023-03-31T01:00:45;99376.09;;;5.20;81.82
39793;BME280;26080;42.264;24.536;2023-03-31T01:03:12;99382.19;;;5.21;81.63
39793;BME280;26080;42.264;24.536;2023-03-31T01:06:02;99381.41;;;5.16;82.54
39793;BME280;26080;42.264;24.536;2023-03-31T01:08:30;99379.63;;;5.18;82.68
39793;BME280;26080;42.264;24.536;2023-03-31T01:10:59;99391.06;;;5.11;82.76
39793;BME280;26080;42.264;24.536;2023-03-31T01:13:26;99388.66;;;5.01;83.85
39793;BME280;26080;42.264;24.536;2023-03-31T01:15:53;99389.66;;;4.97;84.41
39793;BME280;26080;42.264;24.536;2023-03-31T01:18:18;99393.25;;;4.90;84.14
39793;BME280;26080;42.264;24.536;2023-03-31T01:30:04;99367.06;;;5.01;83.78
39793;BME280;26080;42.264;24.536;2023-03-31T01:33:03;99363.44;;;5.06;82.83
39793;BME280;26080;42.264;24.536;2023-03-31T01:35:57;99359.88;;;5.12;83.04
39793;BME280;26080;42.264;24.536;2023-03-31T01:46:40;99339.44;;;4.21;90.00
39793;BME280;26080;42.264;24.536;2023-03-31T01:49:17;99358.97;;;4.37;90.27
39793;BME280;26080;42.264;24.536;2023-03-31T01:54:47;99356.53;;;4.31;90.51
39793;BME280;26080;42.264;24.536;2023-03-31T01:57:26;99349.53;;;4.35;90.80
39793;BME280;26080;42.264;24.536;2023-03-31T02:02:39;99342.47;;;4.41;90.64
39793;BME280;26080;42.264;24.536;2023-03-31T02:05:19;99344.38;;;4.33;91.40
39793;BME280;26080;42.264;24.536;2023-03-31T02:10:18;99344.28;;;4.36;91.82
39793;BME280;26080;42.264;24.536;2023-03-31T02:12:45;99340.78;;;4.40;91.26
39793;BME280;26080;42.264;24.536;2023-03-31T02:15:17;99343.38;;;4.40;91.96
39793;BME280;26080;42.264;24.536;2023-03-31T02:17:47;99342.41;;;4.44;91.12
39793;BME280;26080;42.264;24.536;2023-03-31T02:20:16;99355.41;;;4.43;91.00
39793;BME280;26080;42.264;24.536;2023-03-31T02:22:48;99339.88;;;4.41;89.72
39793;BME280;26080;42.264;24.536;2023-03-31T02:25:18;99343.34;;;4.42;89.57
39793;BME280;26080;42.264;24.536;2023-03-31T02:27:50;99335.44;;;4.46;89.36
39793;BME280;26080;42.264;24.536;2023-03-31T02:30:18;99334.59;;;4.46;88.45
39793;BME280;26080;42.264;24.536;2023-03-31T02:32:44;99340.50;;;4.53;86.42
39793;BME280;26080;42.264;24.536;2023-03-31T02:35:16;99339.78;;;4.46;86.47
39793;BME280;26080;42.264;24.536;2023-03-31T02:37:43;99346.78;;;4.42;86.55
39793;BME280;26080;42.264;24.536;2023-03-31T02:40:17;99346.84;;;4.39;87.93
39793;BME280;26080;42.264;24.536;2023-03-31T02:42:42;99348.47;;;4.43;86.81
39793;BME280;26080;42.264;24.536;2023-03-31T02:45:46;99347.53;;;4.47;87.45
39793;BME280;26080;42.264;24.536;2023-03-31T02:48:23;99346.78;;;4.42;88.75
39793;BME280;26080;42.264;24.536;2023-03-31T03:07:02;99368.13;;;4.13;91.52
39793;BME280;26080;42.264;24.536;2023-03-31T03:12:44;99366.44;;;4.12;93.79
39793;BME280;26080;42.264;24.536;2023-03-31T03:15:11;99366.34;;;4.15;93.98
39793;BME280;26080;42.264;24.536;2023-03-31T03:17:43;99380.91;;;4.21;93.91
39793;BME280;26080;42.264;24.536;2023-03-31T03:20:10;99379.84;;;4.31;94.60
39793;BME280;26080;42.264;24.536;2023-03-31T03:22:37;99381.56;;;4.32;94.85
39793;BME280;26080;42.264;24.536;2023-03-31T03:25:08;99380.66;;;4.33;96.02
39793;BME280;26080;42.264;24.536;2023-03-31T03:27:35;99380.56;;;4.39;96.27
39793;BME280;26080;42.264;24.536;2023-03-31T03:30:05;99375.03;;;4.55;94.54
39793;BME280;26080;42.264;24.536;2023-03-31T03:32:31;99378.63;;;4.47;95.75
39793;BME280;26080;42.264;24.536;2023-03-31T03:35:01;99365.00;;;4.39;95.33
39793;BME280;26080;42.264;24.536;2023-03-31T03:37:27;99370.75;;;4.54;95.93
39793;BME280;26080;42.264;24.536;2023-03-31T03:39:53;99373.34;;;4.54;97.19
39793;BME280;26080;42.264;24.536;2023-03-31T03:42:18;99355.19;;;4.54;97.84
39793;BME280;26080;42.264;24.536;2023-03-31T03:44:44;99376.53;;;4.65;98.14
39793;BME280;26080;42.264;24.536;2023-03-31T03:47:10;99377.06;;;4.79;98.26
39793;BME280;26080;42.264;24.536;2023-03-31T03:49:35;99370.41;;;4.69;98.19
39793;BME280;26080;42.264;24.536;2023-03-31T03:52:01;99369.50;;;4.70;98.28
39793;BME280;26080;42.264;24.536;2023-03-31T03:54:26;99365.03;;;4.76;97.33
39793;BME280;26080;42.264;24.536;2023-03-31T03:56:51;99356.38;;;4.76;97.62
39793;BME280;26080;42.264;24.536;2023-03-31T03:59:17;99345.06;;;4.80;99.40
39793;BME280;26080;42.264;24.536;2023-03-31T04:01:45;99351.69;;;4.92;97.79
39793;BME280;26080;42.264;24.536;2023-03-31T04:04:11;99354.84;;;5.04;96.98
39793;BME280;26080;42.264;24.536;2023-03-31T04:06:37;99350.25;;;5.16;96.39
39793;BME280;26080;42.264;24.536;2023-03-31T04:09:02;99337.19;;;5.19;97.63
39793;BME280;26080;42.264;24.536;2023-03-31T04:11:28;99343.19;;;5.22;98.76
39793;BME280;26080;42.264;24.536;2023-03-31T04:13:54;99340.63;;;5.21;98.47
39793;BME280;26080;42.264;24.536;2023-03-31T04:16:19;99336.28;;;5.21;98.11
39793;BME280;26080;42.264;24.536;2023-03-31T04:18:47;99327.66;;;5.21;93.83
39793;BME280;26080;42.264;24.536;2023-03-31T04:21:14;99328.69;;;5.14;93.10
39793;BME280;26080;42.264;24.536;2023-03-31T04:23:48;99331.09;;;5.20;93.70
39793;BME280;26080;42.264;24.536;2023-03-31T04:26:15;99318.88;;;5.25;93.76
39793;BME280;26080;42.264;24.536;2023-03-31T04:28:41;99334.19;;;5.35;94.38
39793;BME280;26080;42.264;24.536;2023-03-31T04:31:14;99330.66;;;5.38;94.45
39793;BME280;26080;42.264;24.536;2023-03-31T04:33:50;99333.09;;;5.44;94.46
39793;BME280;26080;42.264;24.536;2023-03-31T04:36:15;99324.88;;;5.59;93.20
39793;BME280;26080;42.264;24.536;2023-03-31T04:38:45;99326.34;;;5.70;92.30
39793;BME280;26080;42.264;24.536;2023-03-31T04:41:15;99288.13;;;5.42;93.56
39793;BME280;26080;42.264;24.536;2023-03-31T04:43:41;99314.97;;;5.74;94.52
39793;BME280;26080;42.264;24.536;2023-03-31T04:46:07;99312.97;;;5.83;93.68
39793;BME280;26080;42.264;24.536;2023-03-31T04:48:33;99311.13;;;5.87;94.23
39793;BME280;26080;42.264;24.536;2023-03-31T04:50:58;99314.41;;;5.95;93.49
39793;BME280;26080;42.264;24.536;2023-03-31T04:53:24;99301.06;;;6.07;92.01
39793;BME280;26080;42.264;24.536;2023-03-31T04:55:50;99299.31;;;6.08;94.83
39793;BME280;26080;42.264;24.536;2023-03-31T04:58:16;99253.63;;;5.99;94.51
39793;BME280;26080;42.264;24.536;2023-03-31T05:00:41;99296.81;;;6.34;93.73
39793;BME280;26080;42.264;24.536;2023-03-31T05:03:07;99256.81;;;6.09;94.57
39793;BME280;26080;42.264;24.536;2023-03-31T05:05:34;99304.81;;;6.27;94.07
39793;BME280;26080;42.264;24.536;2023-03-31T05:07:59;99298.78;;;6.26;94.41
39793;BME280;26080;42.264;24.536;2023-03-31T05:10:25;99292.78;;;6.24;94.06
39793;BME280;26080;42.264;24.536;2023-03-31T05:12:50;99301.31;;;6.28;94.30
39793;BME280;26080;42.264;24.536;2023-03-31T05:15:16;99298.91;;;6.21;95.06
39793;BME280;26080;42.264;24.536;2023-03-31T05:17:41;99303.38;;;6.16;94.86
39793;BME280;26080;42.264;24.536;2023-03-31T05:20:08;99294.41;;;6.27;94.10
39793;BME280;26080;42.264;24.536;2023-03-31T05:22:35;99284.69;;;6.33;94.97
39793;BME280;26080;42.264;24.536;2023-03-31T05:25:02;99275.03;;;6.37;96.19
39793;BME280;26080;42.264;24.536;2023-03-31T05:27:28;99273.25;;;6.39;97.93
39793;BME280;26080;42.264;24.536;2023-03-31T05:29:53;99244.03;;;6.31;99.24
39793;BME280;26080;42.264;24.536;2023-03-31T05:32:19;99270.31;;;6.49;97.10
39793;BME280;26080;42.264;24.536;2023-03-31T05:34:44;99270.03;;;6.59;94.50
39793;BME280;26080;42.264;24.536;2023-03-31T05:37:10;99264.53;;;6.68;93.20
39793;BME280;26080;42.264;24.536;2023-03-31T05:39:35;99257.56;;;6.68;92.85
39793;BME280;26080;42.264;24.536;2023-03-31T05:42:01;99265.81;;;6.54;94.56
39793;BME280;26080;42.264;24.536;2023-03-31T05:44:27;99252.25;;;6.45;96.27
39793;BME280;26080;42.264;24.536;2023-03-31T05:46:53;99253.75;;;6.52;97.39
39793;BME280;26080;42.264;24.536;2023-03-31T05:49:19;99246.34;;;6.66;95.57
39793;BME280;26080;42.264;24.536;2023-03-31T05:51:45;99246.06;;;6.75;94.97
39793;BME280;26080;42.264;24.536;2023-03-31T05:54:11;99248.72;;;6.74;93.00
39793;BME280;26080;42.264;24.536;2023-03-31T05:56:36;99252.97;;;6.76;92.42
39793;BME280;26080;42.264;24.536;2023-03-31T05:59:02;99248.47;;;6.81;91.87
39793;BME280;26080;42.264;24.536;2023-03-31T06:01:27;99252.63;;;6.87;91.81
39793;BME280;26080;42.264;24.536;2023-03-31T06:03:54;99254.16;;;6.93;93.25
39793;BME280;26080;42.264;24.536;2023-03-31T06:06:20;99242.78;;;6.95;95.42
39793;BME280;26080;42.264;24.536;2023-03-31T06:08:46;99246.06;;;7.02;95.29
39793;BME280;26080;42.264;24.536;2023-03-31T06:11:17;99242.38;;;7.07;95.13
39793;BME280;26080;42.264;24.536;2023-03-31T06:13:47;99249.91;;;7.17;94.56
39793;BME280;26080;42.264;24.536;2023-03-31T06:16:14;99249.56;;;7.26;93.69
39793;BME280;26080;42.264;24.536;2023-03-31T06:18:40;99242.09;;;7.40;91.71
39793;BME280;26080;42.264;24.536;2023-03-31T06:21:06;99239.84;;;7.56;93.34
39793;BME280;26080;42.264;24.536;2023-03-31T06:23:32;99219.91;;;7.55;92.23
39793;BME280;26080;42.264;24.536;2023-03-31T06:26:03;99248.63;;;8.00;90.03
39793;BME280;26080;42.264;24.536;2023-03-31T06:28:29;99210.84;;;8.10;86.83
39793;BME280;26080;42.264;24.536;2023-03-31T06:31:05;99215.63;;;8.44;84.68
39793;BME280;26080;42.264;24.536;2023-03-31T06:33:32;99206.53;;;8.75;82.57
39793;BME280;26080;42.264;24.536;2023-03-31T06:35:59;99219.28;;;9.03;79.44
39793;BME280;26080;42.264;24.536;2023-03-31T06:38:26;99198.19;;;8.87;79.28
39793;BME280;26080;42.264;24.536;2023-03-31T06:40:52;99219.91;;;9.09;76.78
39793;BME280;26080;42.264;24.536;2023-03-31T06:43:18;99182.84;;;9.00;74.83
39793;BME280;26080;42.264;24.536;2023-03-31T06:45:44;99209.84;;;9.20;75.04
39793;BME280;26080;42.264;24.536;2023-03-31T06:48:09;99214.34;;;9.37;74.54
39793;BME280;26080;42.264;24.536;2023-03-31T06:50:39;99218.19;;;9.49;74.27
39793;BME280;26080;42.264;24.536;2023-03-31T06:53:08;99183.41;;;9.47;75.33
39793;BME280;26080;42.264;24.536;2023-03-31T06:55:34;99205.56;;;9.77;73.24
39793;BME280;26080;42.264;24.536;2023-03-31T06:57:59;99159.41;;;9.76;70.36
39793;BME280;26080;42.264;24.536;2023-03-31T07:00:25;99198.34;;;10.20;73.21
39793;BME280;26080;42.264;24.536;2023-03-31T07:02:52;99183.34;;;10.60;69.84
39793;BME280;26080;42.264;24.536;2023-03-31T07:05:17;99188.16;;;10.86;68.05
39793;BME280;26080;42.264;24.536;2023-03-31T07:07:44;99192.06;;;11.12;67.61
39793;BME280;26080;42.264;24.536;2023-03-31T07:10:10;99184.22;;;11.45;66.40
39793;BME280;26080;42.264;24.536;2023-03-31T07:12:35;99183.59;;;11.73;65.18
39793;BME280;26080;42.264;24.536;2023-03-31T07:15:01;99156.88;;;11.67;60.27
39793;BME280;26080;42.264;24.536;2023-03-31T07:17:26;99154.66;;;11.75;58.34
39793;BME280;26080;42.264;24.536;2023-03-31T07:19:52;99172.47;;;11.85;58.95
39793;BME280;26080;42.264;24.536;2023-03-31T07:22:17;99178.25;;;12.08;58.99
39793;BME280;26080;42.264;24.536;2023-03-31T07:24:43;99169.91;;;12.31;60.44
39793;BME280;26080;42.264;24.536;2023-03-31T07:27:08;99177.66;;;12.34;61.58
39793;BME280;26080;42.264;24.536;2023-03-31T07:29:34;99175.72;;;12.06;60.90
39793;BME280;26080;42.264;24.536;2023-03-31T07:32:00;99179.78;;;11.96;63.97
39793;BME280;26080;42.264;24.536;2023-03-31T07:34:25;99181.78;;;11.91;65.61
39793;BME280;26080;42.264;24.536;2023-03-31T07:36:54;99181.47;;;11.97;65.89
39793;BME280;26080;42.264;24.536;2023-03-31T07:39:20;99179.94;;;11.93;65.84
39793;BME280;26080;42.264;24.536;2023-03-31T07:41:45;99185.34;;;11.90;65.18
39793;BME280;26080;42.264;24.536;2023-03-31T07:44:11;99173.75;;;11.94;68.11
39793;BME280;26080;42.264;24.536;2023-03-31T07:46:36;99166.19;;;12.20;67.82
39793;BME280;26080;42.264;24.536;2023-03-31T07:49:02;99169.25;;;12.28;66.96
39793;BME280;26080;42.264;24.536;2023-03-31T07:51:28;99169.03;;;12.46;68.57
39793;BME280;26080;42.264;24.536;2023-03-31T07:53:53;99140.47;;;12.56;66.73
39793;BME280;26080;42.264;24.536;2023-03-31T07:56:21;99161.53;;;12.70;68.09
39793;BME280;26080;42.264;24.536;2023-03-31T07:58:47;99145.72;;;12.56;68.21
39793;BME280;26080;42.264;24.536;2023-03-31T08:01:14;99128.38;;;12.54;67.91
39793;BME280;26080;42.264;24.536;2023-03-31T08:03:44;99144.88;;;12.86;67.83
39793;BME280;26080;42.264;24.536;2023-03-31T08:06:12;99145.41;;;13.07;67.78
39793;BME280;26080;42.264;24.536;2023-03-31T08:08:41;99137.25;;;13.25;69.92
39793;BME280;26080;42.264;24.536;2023-03-31T08:11:08;99132.75;;;13.42;68.78
39793;BME280;26080;42.264;24.536;2023-03-31T08:13:34;99116.97;;;13.42;65.70
39793;BME280;26080;42.264;24.536;2023-03-31T08:16:00;99097.44;;;13.60;65.84
39793;BME280;26080;42.264;24.536;2023-03-31T08:18:25;99099.91;;;13.90;64.68
39793;BME280;26080;42.264;24.536;2023-03-31T08:20:51;99093.16;;;14.13;64.75
39793;BME280;26080;42.264;24.536;2023-03-31T08:23:16;99094.53;;;14.18;62.78
39793;BME280;26080;42.264;24.536;2023-03-31T08:25:42;99099.63;;;14.34;63.28
39793;BME280;26080;42.264;24.536;2023-03-31T08:28:07;99096.69;;;14.66;62.23
39793;BME280;26080;42.264;24.536;2023-03-31T08:30:36;99071.41;;;14.76;64.07
39793;BME280;26080;42.264;24.536;2023-03-31T08:33:03;99076.47;;;15.04;61.86
39793;BME280;26080;42.264;24.536;2023-03-31T08:35:28;99077.84;;;15.23;64.05
39793;BME280;26080;42.264;24.536;2023-03-31T08:37:54;99074.25;;;15.24;62.12
39793;BME280;26080;42.264;24.536;2023-03-31T08:40:22;99068.53;;;15.30;63.07
39793;BME280;26080;42.264;24.536;2023-03-31T08:42:51;99054.34;;;15.56;63.06
39793;BME280;26080;42.264;24.536;2023-03-31T08:45:30;99033.09;;;15.70;60.95
39793;BME280;26080;42.264;24.536;2023-03-31T08:48:06;98993.56;;;15.45;59.88
39793;BME280;26080;42.264;24.536;2023-03-31T08:50:40;99019.53;;;15.64;59.81
39793;BME280;26080;42.264;24.536;2023-03-31T08:56:15;98994.28;;;15.47;60.25
39793;BME280;26080;42.264;24.536;2023-03-31T08:58:46;99017.50;;;15.67;60.75
39793;BME280;26080;42.264;24.536;2023-03-31T09:12:54;98987.44;;;16.16;62.26
39793;BME280;26080;42.264;24.536;2023-03-31T09:18:50;98978.09;;;16.58;62.57
39793;BME280;26080;42.264;24.536;2023-03-31T09:20:51;98935.16;;;16.66;62.15
39793;BME280;26080;42.264;24.536;2023-03-31T09:23:31;98967.66;;;16.91;61.61
39793;BME280;26080;42.264;24.536;2023-03-31T09:25:58;98963.44;;;17.10;59.31
39793;BME280;26080;42.264;24.536;2023-03-31T09:28:36;98955.16;;;17.15;60.48
39793;BME280;26080;42.264;24.536;2023-03-31T09:31:14;98956.47;;;17.09;57.89
39793;BME280;26080;42.264;24.536;2023-03-31T09:33:45;98947.34;;;17.13;60.66
39793;BME280;26080;42.264;24.536;2023-03-31T09:36:14;98949.03;;;17.14;57.62
39793;BME280;26080;42.264;24.536;2023-03-31T09:38:42;98942.75;;;17.15;58.16
39793;BME280;26080;42.264;24.536;2023-03-31T09:41:10;98935.41;;;17.19;57.63
39793;BME280;26080;42.264;24.536;2023-03-31T09:43:36;98944.31;;;17.29;57.91
39793;BME280;26080;42.264;24.536;2023-03-31T09:46:34;98933.06;;;17.37;57.67
39793;BME280;26080;42.264;24.536;2023-03-31T09:49:08;98933.66;;;17.40;58.15
39793;BME280;26080;42.264;24.536;2023-03-31T09:51:37;98912.31;;;17.53;58.46
39793;BME280;26080;42.264;24.536;2023-03-31T09:59:15;98906.53;;;17.91;52.88
39793;BME280;26080;42.264;24.536;2023-03-31T10:01:43;98895.19;;;18.00;54.31
39793;BME280;26080;42.264;24.536;2023-03-31T10:04:17;98892.47;;;18.12;52.08
39793;BME280;26080;42.264;24.536;2023-03-31T10:06:44;98886.78;;;18.37;52.04
39793;BME280;26080;42.264;24.536;2023-03-31T10:09:10;98880.72;;;18.56;52.94
39793;BME280;26080;42.264;24.536;2023-03-31T10:11:37;98872.03;;;18.84;50.76
39793;BME280;26080;42.264;24.536;2023-03-31T10:14:04;98859.34;;;18.88;47.81
39793;BME280;26080;42.264;24.536;2023-03-31T10:16:33;98865.34;;;18.80;50.85
39793;BME280;26080;42.264;24.536;2023-03-31T10:19:12;98866.56;;;18.67;50.63
39793;BME280;26080;42.264;24.536;2023-03-31T10:21:38;98867.44;;;18.56;48.96
39793;BME280;26080;42.264;24.536;2023-03-31T10:24:08;98853.31;;;18.46;50.01
39793;BME280;26080;42.264;24.536;2023-03-31T10:26:34;98871.38;;;18.61;51.56
39793;BME280;26080;42.264;24.536;2023-03-31T10:29:00;98857.63;;;18.68;50.07
39793;BME280;26080;42.264;24.536;2023-03-31T10:31:33;98857.63;;;18.68;50.49
39793;BME280;26080;42.264;24.536;2023-03-31T10:34:05;98852.63;;;18.84;48.21
39793;BME280;26080;42.264;24.536;2023-03-31T10:36:32;98838.16;;;18.98;48.81
39793;BME280;26080;42.264;24.536;2023-03-31T10:39:04;98853.00;;;19.29;50.67
39793;BME280;26080;42.264;24.536;2023-03-31T10:41:30;98842.09;;;19.42;45.33
39793;BME280;26080;42.264;24.536;2023-03-31T10:44:01;98832.34;;;19.71;44.71
39793;BME280;26080;42.264;24.536;2023-03-31T10:46:47;98843.19;;;20.07;42.87
39793;BME280;26080;42.264;24.536;2023-03-31T10:51:51;98825.41;;;20.17;43.63
39793;BME280;26080;42.264;24.536;2023-03-31T10:54:16;98827.22;;;20.17;41.95
39793;BME280;26080;42.264;24.536;2023-03-31T10:56:45;98827.78;;;20.20;40.21
39793;BME280;26080;42.264;24.536;2023-03-31T11:13:27;98797.78;;;19.71;42.33
39793;BME280;26080;42.264;24.536;2023-03-31T11:18:54;98794.00;;;19.45;44.33
39793;BME280;26080;42.264;24.536;2023-03-31T11:30:30;98770.25;;;19.43;44.60
39793;BME280;26080;42.264;24.536;2023-03-31T11:36:02;98748.44;;;19.69;43.55
39793;BME280;26080;42.264;24.536;2023-03-31T11:41:38;98744.66;;;19.81;42.79
39793;BME280;26080;42.264;24.536;2023-03-31T11:51:41;98726.13;;;19.99;42.49
39793;BME280;26080;42.264;24.536;2023-03-31T11:54:16;98730.13;;;20.12;42.00
39793;BME280;26080;42.264;24.536;2023-03-31T11:56:42;98713.53;;;20.28;41.63
39793;BME280;26080;42.264;24.536;2023-03-31T11:59:14;98714.25;;;20.30;40.38
39793;BME280;26080;42.264;24.536;2023-03-31T12:06:45;98680.94;;;20.54;40.09
39793;BME280;26080;42.264;24.536;2023-03-31T12:09:43;98704.19;;;20.69;38.75
39793;BME280;26080;42.264;24.536;2023-03-31T12:12:32;98695.91;;;20.55;38.20
39793;BME280;26080;42.264;24.536;2023-03-31T12:15:13;98694.47;;;20.43;37.81
39793;BME280;26080;42.264;24.536;2023-03-31T12:17:43;98680.88;;;20.46;38.59
39793;BME280;26080;42.264;24.536;2023-03-31T12:20:40;98689.91;;;20.53;37.80
39793;BME280;26080;42.264;24.536;2023-03-31T12:23:11;98692.59;;;20.70;38.86
39793;BME280;26080;42.264;24.536;2023-03-31T12:25:50;98684.22;;;20.65;37.50
39793;BME280;26080;42.264;24.536;2023-03-31T12:28:17;98685.97;;;20.57;37.74
39793;BME280;26080;42.264;24.536;2023-03-31T12:30:44;98685.63;;;20.42;36.14
39793;BME280;26080;42.264;24.536;2023-03-31T12:33:19;98680.56;;;20.49;37.48
39793;BME280;26080;42.264;24.536;2023-03-31T12:36:15;98678.88;;;20.48;38.29
39793;BME280;26080;42.264;24.536;2023-03-31T12:39:09;98670.84;;;20.57;37.17
39793;BME280;26080;42.264;24.536;2023-03-31T12:49:24;98657.53;;;21.11;37.30
39793;BME280;26080;42.264;24.536;2023-03-31T12:55:00;98657.72;;;21.17;36.45
39793;BME280;26080;42.264;24.536;2023-03-31T12:57:34;98647.56;;;20.77;36.42
39793;BME280;26080;42.264;24.536;2023-03-31T13:00:15;98650.47;;;20.84;37.15
39793;BME280;26080;42.264;24.536;2023-03-31T13:02:44;98628.81;;;20.61;37.70
39793;BME280;26080;42.264;24.536;2023-03-31T13:08:00;98635.94;;;20.78;37.81
39793;BME280;26080;42.264;24.536;2023-03-31T13:10:29;98634.91;;;20.71;37.23
39793;BME280;26080;42.264;24.536;2023-03-31T13:13:01;98614.53;;;20.62;37.11
39793;BME280;26080;42.264;24.536;2023-03-31T13:15:28;98627.59;;;20.73;38.46
39793;BME280;26080;42.264;24.536;2023-03-31T13:18:05;98627.97;;;20.60;38.15
39793;BME280;26080;42.264;24.536;2023-03-31T13:31:02;98612.88;;;20.33;39.16
39793;BME280;26080;42.264;24.536;2023-03-31T14:06:36;98571.22;;;19.51;40.39
39793;BME280;26080;42.264;24.536;2023-03-31T14:09:13;98576.38;;;19.53;40.33
39793;BME280;26080;42.264;24.536;2023-03-31T14:11:41;98566.78;;;19.42;39.67
39793;BME280;26080;42.264;24.536;2023-03-31T14:14:14;98560.06;;;19.48;39.92
39793;BME280;26080;42.264;24.536;2023-03-31T14:16:52;98559.50;;;19.44;39.27
39793;BME280;26080;42.264;24.536;2023-03-31T14:19:50;98553.09;;;19.47;38.88
39793;BME280;26080;42.264;24.536;2023-03-31T14:25:18;98550.44;;;19.47;38.52
39793;BME280;26080;42.264;24.536;2023-03-31T14:33:49;98541.69;;;19.27;40.89
39793;BME280;26080;42.264;24.536;2023-03-31T14:39:05;98552.06;;;19.20;41.84
39793;BME280;26080;42.264;24.536;2023-03-31T14:41:33;98549.00;;;19.15;41.68
39793;BME280;26080;42.264;24.536;2023-03-31T14:44:05;98552.47;;;19.26;41.97
39793;BME280;26080;42.264;24.536;2023-03-31T14:46:35;98553.66;;;19.41;41.41
39793;BME280;26080;42.264;24.536;2023-03-31T14:51:45;98543.19;;;19.76;42.08
39793;BME280;26080;42.264;24.536;2023-03-31T14:54:18;98545.19;;;19.92;39.85
39793;BME280;26080;42.264;24.536;2023-03-31T14:56:55;98536.84;;;20.05;39.80
39793;BME280;26080;42.264;24.536;2023-03-31T14:59:28;98540.84;;;19.91;40.07
39793;BME280;26080;42.264;24.536;2023-03-31T15:01:59;98536.53;;;19.90;40.41
39793;BME280;26080;42.264;24.536;2023-03-31T15:04:28;98538.88;;;19.93;41.02
39793;BME280;26080;42.264;24.536;2023-03-31T15:06:54;98542.72;;;19.81;41.96
39793;BME280;26080;42.264;24.536;2023-03-31T15:09:32;98544.13;;;20.03;41.23
39793;BME280;26080;42.264;24.536;2023-03-31T15:12:03;98543.22;;;20.12;41.07
39793;BME280;26080;42.264;24.536;2023-03-31T15:14:31;98543.22;;;20.12;40.64
39793;BME280;26080;42.264;24.536;2023-03-31T15:16:58;98540.41;;;20.13;40.44
39793;BME280;26080;42.264;24.536;2023-03-31T15:19:33;98536.84;;;20.05;41.32
39793;BME280;26080;42.264;24.536;2023-03-31T15:22:10;98547.47;;;20.05;42.07
39793;BME280;26080;42.264;24.536;2023-03-31T15:24:35;98539.81;;;20.02;41.88
39793;BME280;26080;42.264;24.536;2023-03-31T15:29:50;98515.16;;;20.00;39.89
39793;BME280;26080;42.264;24.536;2023-03-31T15:32:31;98544.03;;;20.12;41.35
39793;BME280;26080;42.264;24.536;2023-03-31T15:34:59;98526.78;;;19.99;41.17
39793;BME280;26080;42.264;24.536;2023-03-31T15:37:53;98540.84;;;20.09;41.71
39793;BME280;26080;42.264;24.536;2023-03-31T15:40:26;98532.66;;;20.02;40.38
39793;BME280;26080;42.264;24.536;2023-03-31T15:43:05;98536.84;;;20.05;39.64
39793;BME280;26080;42.264;24.536;2023-03-31T15:45:51;98533.19;;;20.06;39.82
39793;BME280;26080;42.264;24.536;2023-03-31T15:50:43;98533.91;;;19.80;40.13
39793;BME280;26080;42.264;24.536;2023-03-31T15:55:54;98526.44;;;19.66;41.06
39793;BME280;26080;42.264;24.536;2023-03-31T15:58:24;98522.97;;;19.66;40.87
39793;BME280;26080;42.264;24.536;2023-03-31T16:01:09;98520.34;;;19.56;41.50
39793;BME280;26080;42.264;24.536;2023-03-31T16:03:40;98518.41;;;19.48;41.89
39793;BME280;26080;42.264;24.536;2023-03-31T16:06:08;98511.28;;;19.49;43.01
39793;BME280;26080;42.264;24.536;2023-03-31T16:08:42;98513.94;;;19.49;43.28
39793;BME280;26080;42.264;24.536;2023-03-31T16:11:17;98507.09;;;19.19;44.07
39793;BME280;26080;42.264;24.536;2023-03-31T16:13:49;98501.31;;;18.96;44.81
39793;BME280;26080;42.264;24.536;2023-03-31T16:16:18;98515.03;;;18.91;44.88
39793;BME280;26080;42.264;24.536;2023-03-31T16:18:50;98518.09;;;18.77;45.48
39793;BME280;26080;42.264;24.536;2023-03-31T16:21:25;98516.63;;;18.65;46.33
39793;BME280;26080;42.264;24.536;2023-03-31T16:23:55;98520.22;;;18.54;46.26
39793;BME280;26080;42.264;24.536;2023-03-31T16:26:22;98518.69;;;18.42;47.00